sensor_id;sensor_type;location;lat;lon;timestamp;temperature;humidity
39525;DHT22;25203;50.754;6.978;2023-12-04T00:01:30;0.40;99.90
39525;DHT22;25203;50.754;6.978;2023-12-04T00:03:31;0.40;99.90
39525;DHT22;25203;50.754;6.978;2023-12-04T00:05:31;0.40;99.90
39525;DHT22;25203;50.754;6.978;2023-12-04T00:07:32;0.40;99.90
39525;DHT22;25203;50.754;6.978;2023-12-04T00:09:33;0.40;99.90
39525;DHT22;25203;50.754;6.978;2023-12-04T00:11:34;0.40;99.90
39525;DHT22;25203;50.754;6.978;2023-12-04T00:13:35;0.40;99.90
39525;DHT22;25203;50.754;6.978;2023-12-04T00:15:36;0.40;99.90
39525;DHT22;25203;50.754;6.978;2023-12-04T00:17:36;0.40;99.90
39525;DHT22;25203;50.754;6.978;2023-12-04T00:19:40;0.40;99.90
39525;DHT22;25203;50.754;6.978;2023-12-04T00:21:40;0.40;99.90
39525;DHT22;25203;50.754;6.978;2023-12-04T00:23:41;0.40;99.90
39525;DHT22;25203;50.754;6.978;2023-12-04T00:25:41;0.40;99.90
39525;DHT22;25203;50.754;6.978;2023-12-04T00:27:42;0.40;99.90
39525;DHT22;25203;50.754;6.978;2023-12-04T00:29:43;0.40;99.90
39525;DHT22;25203;50.754;6.978;2023-12-04T00:31:43;0.40;99.90
39525;DHT22;25203;50.754;6.978;2023-12-04T00:33:44;0.40;99.90
39525;DHT22;25203;50.754;6.978;2023-12-04T00:35:44;0.40;99.90
39525;DHT22;25203;50.754;6.978;2023-12-04T00:37:45;0.30;99.90
39525;DHT22;25203;50.754;6.978;2023-12-04T00:39:45;0.30;99.90
39525;DHT22;25203;50.754;6.978;2023-12-04T00:41:46;0.30;99.90
39525;DHT22;25203;50.754;6.978;2023-12-04T00:43:47;0.40;99.90
39525;DHT22;25203;50.754;6.978;2023-12-04T00:45:47;0.40;99.90
39525;DHT22;25203;50.754;6.978;2023-12-04T00:47:48;0.40;99.90
39525;DHT22;25203;50.754;6.978;2023-12-04T00:49:48;0.30;99.90
39525;DHT22;25203;50.754;6.978;2023-12-04T00:51:49;0.30;99.90
39525;DHT22;25203;50.754;6.978;2023-12-04T00:53:50;0.30;99.90
39525;DHT22;25203;50.754;6.978;2023-12-04T00:55:50;0.30;99.90
39525;DHT22;25203;50.754;6.978;2023-12-04T00:57:51;0.30;99.90
39525;DHT22;25203;50.754;6.978;2023-12-04T00:59:51;0.30;99.90
39525;DHT22;25203;50.754;6.978;2023-12-04T01:01:52;0.30;99.90
39525;DHT22;25203;50.754;6.978;2023-12-04T01:03:53;0.30;99.90
39525;DHT22;25203;50.754;6.978;2023-12-04T01:05:53;0.30;99.90
39525;DHT22;25203;50.754;6.978;2023-12-04T01:07:54;0.30;99.90
39525;DHT22;25203;50.754;6.978;2023-12-04T01:09:54;0.30;99.90
39525;DHT22;25203;50.754;6.978;2023-12-04T01:11:55;0.30;99.90
39525;DHT22;25203;50.754;6.978;2023-12-04T01:13:56;0.40;99.90
39525;DHT22;25203;50.754;6.978;2023-12-04T01:15:56;0.30;99.90
39525;DHT22;25203;50.754;6.978;2023-12-04T01:17:57;0.30;99.90
39525;DHT22;25203;50.754;6.978;2023-12-04T01:19:57;0.30;99.90
39525;DHT22;25203;50.754;6.978;2023-12-04T01:21:58;0.30;99.90
39525;DHT22;25203;50.754;6.978;2023-12-04T01:23:58;0.30;99.90
39525;DHT22;25203;50.754;6.978;2023-12-04T01:25:59;0.30;99.90
39525;DHT22;25203;50.754;6.978;2023-12-04T01:28:00;0.30;99.90
39525;DHT22;25203;50.754;6.978;2023-12-04T01:30:01;0.30;99.90
39525;DHT22;25203;50.754;6.978;2023-12-04T01:32:02;0.30;99.90
39525;DHT22;25203;50.754;6.978;2023-12-04T01:34:02;0.30;99.90
39525;DHT22;25203;50.754;6.978;2023-12-04T01:36:03;0.40;99.90
39525;DHT22;25203;50.754;6.978;2023-12-04T01:38:04;0.30;99.90
39525;DHT22;25203;50.754;6.978;2023-12-04T01:40:05;0.40;99.90
39525;DHT22;25203;50.754;6.978;2023-12-04T01:42:07;0.40;99.90
39525;DHT22;25203;50.754;6.978;2023-12-04T01:44:08;0.30;99.90
39525;DHT22;25203;50.754;6.978;2023-12-04T01:46:09;0.40;99.90
39525;DHT22;25203;50.754;6.978;2023-12-04T01:48:09;0.40;99.90
39525;DHT22;25203;50.754;6.978;2023-12-04T01:50:11;0.40;99.90
39525;DHT22;25203;50.754;6.978;2023-12-04T01:52:12;0.40;99.90
39525;DHT22;25203;50.754;6.978;2023-12-04T01:54:13;0.40;99.90
39525;DHT22;25203;50.754;6.978;2023-12-04T01:56:15;0.40;99.90
39525;DHT22;25203;50.754;6.978;2023-12-04T01:58:17;0.40;99.90
39525;DHT22;25203;50.754;6.978;2023-12-04T02:00:17;0.40;99.90
39525;DHT22;25203;50.754;6.978;2023-12-04T02:02:20;0.40;99.90
39525;DHT22;25203;50.754;6.978;2023-12-04T02:04:21;0.40;99.90
39525;DHT22;25203;50.754;6.978;2023-12-04T02:06:22;0.40;99.90
39525;DHT22;25203;50.754;6.978;2023-12-04T02:08:23;0.40;99.90
39525;DHT22;25203;50.754;6.978;2023-12-04T02:10:24;0.40;99.90
39525;DHT22;25203;50.754;6.978;2023-12-04T02:12:25;0.40;99.90
39525;DHT22;25203;50.754;6.978;2023-12-04T02:14:26;0.40;99.90
39525;DHT22;25203;50.754;6.978;2023-12-04T02:16:28;0.40;99.90
39525;DHT22;25203;50.754;6.978;2023-12-04T02:18:30;0.30;99.90
39525;DHT22;25203;50.754;6.978;2023-12-04T02:20:31;0.30;99.90
39525;DHT22;25203;50.754;6.978;2023-12-04T02:22:34;0.30;99.90
39525;DHT22;25203;50.754;6.978;2023-12-04T02:24:35;0.30;99.90
39525;DHT22;25203;50.754;6.978;2023-12-04T02:26:42;0.30;99.90
39525;DHT22;25203;50.754;6.978;2023-12-04T02:28:50;0.20;99.90
39525;DHT22;25203;50.754;6.978;2023-12-04T02:30:54;0.20;99.90
39525;DHT22;25203;50.754;6.978;2023-12-04T02:32:57;0.20;99.90
39525;DHT22;25203;50.754;6.978;2023-12-04T02:34:59;0.20;99.90
39525;DHT22;25203;50.754;6.978;2023-12-04T02:37:03;0.20;99.90
39525;DHT22;25203;50.754;6.978;2023-12-04T02:39:05;0.20;99.90
39525;DHT22;25203;50.754;6.978;2023-12-04T02:41:05;0.20;99.90
39525;DHT22;25203;50.754;6.978;2023-12-04T02:43:06;0.20;99.90
39525;DHT22;25203;50.754;6.978;2023-12-04T02:45:07;0.20;99.90
39525;DHT22;25203;50.754;6.978;2023-12-04T02:47:08;0.20;99.90
39525;DHT22;25203;50.754;6.978;2023-12-04T02:49:09;0.20;99.90
39525;DHT22;25203;50.754;6.978;2023-12-04T02:51:10;0.20;99.90
39525;DHT22;25203;50.754;6.978;2023-12-04T02:53:11;0.20;99.90
39525;DHT22;25203;50.754;6.978;2023-12-04T02:55:11;0.20;99.90
39525;DHT22;25203;50.754;6.978;2023-12-04T02:57:12;0.10;99.90
39525;DHT22;25203;50.754;6.978;2023-12-04T02:59:12;0.10;99.90
39525;DHT22;25203;50.754;6.978;2023-12-04T03:01:13;0.10;99.90
39525;DHT22;25203;50.754;6.978;2023-12-04T03:03:13;0.10;99.90
39525;DHT22;25203;50.754;6.978;2023-12-04T03:05:14;0.10;99.90
39525;DHT22;25203;50.754;6.978;2023-12-04T03:07:15;0.10;99.90
39525;DHT22;25203;50.754;6.978;2023-12-04T03:09:15;0.10;99.90
39525;DHT22;25203;50.754;6.978;2023-12-04T03:11:16;0.00;99.90
39525;DHT22;25203;50.754;6.978;2023-12-04T03:13:17;0.10;99.90
39525;DHT22;25203;50.754;6.978;2023-12-04T03:15:17;0.10;99.90
39525;DHT22;25203;50.754;6.978;2023-12-04T03:17:18;0.10;99.90
39525;DHT22;25203;50.754;6.978;2023-12-04T03:19:18;0.10;99.90
39525;DHT22;25203;50.754;6.978;2023-12-04T03:21:19;0.10;99.90
39525;DHT22;25203;50.754;6.978;2023-12-04T03:23:19;0.10;99.90
39525;DHT22;25203;50.754;6.978;2023-12-04T03:25:20;0.00;99.90
39525;DHT22;25203;50.754;6.978;2023-12-04T03:27:21;0.10;99.90
39525;DHT22;25203;50.754;6.978;2023-12-04T03:29:22;0.10;99.90
39525;DHT22;25203;50.754;6.978;2023-12-04T03:31:23;0.10;99.90
39525;DHT22;25203;50.754;6.978;2023-12-04T03:33:23;0.10;99.90
39525;DHT22;25203;50.754;6.978;2023-12-04T03:35:24;0.10;99.90
39525;DHT22;25203;50.754;6.978;2023-12-04T03:37:24;0.00;99.90
39525;DHT22;25203;50.754;6.978;2023-12-04T03:39:25;0.00;99.90
39525;DHT22;25203;50.754;6.978;2023-12-04T03:41:26;0.00;99.90
39525;DHT22;25203;50.754;6.978;2023-12-04T03:43:26;0.00;99.90
39525;DHT22;25203;50.754;6.978;2023-12-04T03:45:27;0.00;99.90
39525;DHT22;25203;50.754;6.978;2023-12-04T03:47:28;0.00;99.90
39525;DHT22;25203;50.754;6.978;2023-12-04T03:49:28;-0.10;99.90
39525;DHT22;25203;50.754;6.978;2023-12-04T03:51:29;0.00;99.90
39525;DHT22;25203;50.754;6.978;2023-12-04T03:53:29;0.00;99.90
39525;DHT22;25203;50.754;6.978;2023-12-04T03:55:30;-0.10;99.90
39525;DHT22;25203;50.754;6.978;2023-12-04T03:57:30;0.00;99.90
39525;DHT22;25203;50.754;6.978;2023-12-04T03:59:31;0.00;99.90
39525;DHT22;25203;50.754;6.978;2023-12-04T04:01:32;-0.10;99.90
39525;DHT22;25203;50.754;6.978;2023-12-04T04:03:32;0.00;99.90
39525;DHT22;25203;50.754;6.978;2023-12-04T04:05:33;0.00;99.90
39525;DHT22;25203;50.754;6.978;2023-12-04T04:07:34;0.00;99.90
39525;DHT22;25203;50.754;6.978;2023-12-04T04:09:35;0.00;99.90
39525;DHT22;25203;50.754;6.978;2023-12-04T04:11:35;-0.10;99.90
39525;DHT22;25203;50.754;6.978;2023-12-04T04:13:36;-0.10;99.90
39525;DHT22;25203;50.754;6.978;2023-12-04T04:15:37;-0.10;99.90
39525;DHT22;25203;50.754;6.978;2023-12-04T04:17:37;-0.10;99.90
39525;DHT22;25203;50.754;6.978;2023-12-04T04:19:38;-0.10;99.90
39525;DHT22;25203;50.754;6.978;2023-12-04T04:21:41;-0.10;99.90
39525;DHT22;25203;50.754;6.978;2023-12-04T04:23:42;-0.10;99.90
39525;DHT22;25203;50.754;6.978;2023-12-04T04:25:42;-0.10;99.90
39525;DHT22;25203;50.754;6.978;2023-12-04T04:27:43;-0.10;99.90
39525;DHT22;25203;50.754;6.978;2023-12-04T04:29:44;-0.10;99.90
39525;DHT22;25203;50.754;6.978;2023-12-04T04:31:45;-0.10;99.90
39525;DHT22;25203;50.754;6.978;2023-12-04T04:33:45;-0.10;99.90
39525;DHT22;25203;50.754;6.978;2023-12-04T04:35:46;-0.10;99.90
39525;DHT22;25203;50.754;6.978;2023-12-04T04:37:46;-0.20;99.90
39525;DHT22;25203;50.754;6.978;2023-12-04T04:39:47;-0.10;99.90
39525;DHT22;25203;50.754;6.978;2023-12-04T04:41:47;-0.10;99.90
39525;DHT22;25203;50.754;6.978;2023-12-04T04:43:48;-0.10;99.90
39525;DHT22;25203;50.754;6.978;2023-12-04T04:45:49;-0.10;99.90
39525;DHT22;25203;50.754;6.978;2023-12-04T04:47:49;-0.10;99.90
39525;DHT22;25203;50.754;6.978;2023-12-04T04:49:50;-0.10;99.90
39525;DHT22;25203;50.754;6.978;2023-12-04T04:51:50;-0.10;99.90
39525;DHT22;25203;50.754;6.978;2023-12-04T04:53:51;-0.10;99.90
39525;DHT22;25203;50.754;6.978;2023-12-04T04:55:52;-0.10;99.90
39525;DHT22;25203;50.754;6.978;2023-12-04T04:57:52;-0.10;99.90
39525;DHT22;25203;50.754;6.978;2023-12-04T04:59:53;-0.10;99.90
39525;DHT22;25203;50.754;6.978;2023-12-04T05:01:53;-0.10;99.90
39525;DHT22;25203;50.754;6.978;2023-12-04T05:03:54;-0.10;99.90
39525;DHT22;25203;50.754;6.978;2023-12-04T05:05:54;-0.10;99.90
39525;DHT22;25203;50.754;6.978;2023-12-04T05:07:55;-0.10;99.90
39525;DHT22;25203;50.754;6.978;2023-12-04T05:09:55;0.00;99.90
39525;DHT22;25203;50.754;6.978;2023-12-04T05:11:56;0.00;99.90
39525;DHT22;25203;50.754;6.978;2023-12-04T05:13:57;0.00;99.90
39525;DHT22;25203;50.754;6.978;2023-12-04T05:15:57;0.00;99.90
39525;DHT22;25203;50.754;6.978;2023-12-04T05:17:58;0.10;99.90
39525;DHT22;25203;50.754;6.978;2023-12-04T05:19:58;0.00;99.90
39525;DHT22;25203;50.754;6.978;2023-12-04T05:21:59;0.00;99.90
39525;DHT22;25203;50.754;6.978;2023-12-04T05:24:00;0.10;99.90
39525;DHT22;25203;50.754;6.978;2023-12-04T05:26:00;0.10;99.90
39525;DHT22;25203;50.754;6.978;2023-12-04T05:28:01;0.10;99.90
39525;DHT22;25203;50.754;6.978;2023-12-04T05:30:02;0.10;99.90
39525;DHT22;25203;50.754;6.978;2023-12-04T05:32:03;0.10;99.90
39525;DHT22;25203;50.754;6.978;2023-12-04T05:34:03;0.20;99.90
39525;DHT22;25203;50.754;6.978;2023-12-04T05:36:04;0.20;99.90
39525;DHT22;25203;50.754;6.978;2023-12-04T05:38:07;0.20;99.90
39525;DHT22;25203;50.754;6.978;2023-12-04T05:40:09;0.20;99.90
39525;DHT22;25203;50.754;6.978;2023-12-04T05:42:11;0.20;99.90
39525;DHT22;25203;50.754;6.978;2023-12-04T05:44:12;0.30;99.90
39525;DHT22;25203;50.754;6.978;2023-12-04T05:46:12;0.20;99.90
39525;DHT22;25203;50.754;6.978;2023-12-04T05:48:13;0.30;99.90
39525;DHT22;25203;50.754;6.978;2023-12-04T05:50:14;0.30;99.90
39525;DHT22;25203;50.754;6.978;2023-12-04T05:52:15;0.30;99.90
39525;DHT22;25203;50.754;6.978;2023-12-04T05:54:15;0.30;99.90
39525;DHT22;25203;50.754;6.978;2023-12-04T05:56:16;0.20;99.90
39525;DHT22;25203;50.754;6.978;2023-12-04T05:58:16;0.20;99.90
39525;DHT22;25203;50.754;6.978;2023-12-04T06:00:17;0.20;99.90
39525;DHT22;25203;50.754;6.978;2023-12-04T06:02:18;0.20;99.90
39525;DHT22;25203;50.754;6.978;2023-12-04T06:04:19;0.20;99.90
39525;DHT22;25203;50.754;6.978;2023-12-04T06:06:20;0.20;99.90
39525;DHT22;25203;50.754;6.978;2023-12-04T06:08:20;0.10;99.90
39525;DHT22;25203;50.754;6.978;2023-12-04T06:10:21;0.20;99.90
39525;DHT22;25203;50.754;6.978;2023-12-04T06:12:21;0.10;99.90
39525;DHT22;25203;50.754;6.978;2023-12-04T06:14:22;0.10;99.90
39525;DHT22;25203;50.754;6.978;2023-12-04T06:16:22;0.10;99.90
39525;DHT22;25203;50.754;6.978;2023-12-04T06:18:23;0.10;99.90
39525;DHT22;25203;50.754;6.978;2023-12-04T06:20:24;0.10;99.90
39525;DHT22;25203;50.754;6.978;2023-12-04T06:22:24;0.10;99.90
39525;DHT22;25203;50.754;6.978;2023-12-04T06:24:25;0.10;99.90
39525;DHT22;25203;50.754;6.978;2023-12-04T06:26:26;0.10;99.90
39525;DHT22;25203;50.754;6.978;2023-12-04T06:28:27;0.00;99.90
39525;DHT22;25203;50.754;6.978;2023-12-04T06:30:28;0.00;99.90
39525;DHT22;25203;50.754;6.978;2023-12-04T06:32:29;0.00;99.90
39525;DHT22;25203;50.754;6.978;2023-12-04T06:34:30;0.00;99.90
39525;DHT22;25203;50.754;6.978;2023-12-04T06:36:32;0.00;99.90
39525;DHT22;25203;50.754;6.978;2023-12-04T06:38:41;-0.10;99.90
39525;DHT22;25203;50.754;6.978;2023-12-04T06:40:43;-0.10;99.90
39525;DHT22;25203;50.754;6.978;2023-12-04T06:42:44;-0.10;99.90
39525;DHT22;25203;50.754;6.978;2023-12-04T06:44:45;-0.10;99.90
39525;DHT22;25203;50.754;6.978;2023-12-04T06:46:48;-0.10;99.90
39525;DHT22;25203;50.754;6.978;2023-12-04T06:48:52;-0.10;99.90
39525;DHT22;25203;50.754;6.978;2023-12-04T06:50:54;-0.10;99.90
39525;DHT22;25203;50.754;6.978;2023-12-04T06:52:55;-0.10;99.90
39525;DHT22;25203;50.754;6.978;2023-12-04T06:54:56;-0.10;99.90
39525;DHT22;25203;50.754;6.978;2023-12-04T06:56:56;-0.10;99.90
39525;DHT22;25203;50.754;6.978;2023-12-04T06:58:57;-0.10;99.90
39525;DHT22;25203;50.754;6.978;2023-12-04T07:00:57;-0.10;99.90
39525;DHT22;25203;50.754;6.978;2023-12-04T07:02:58;-0.10;99.90
39525;DHT22;25203;50.754;6.978;2023-12-04T07:04:59;-0.10;99.90
39525;DHT22;25203;50.754;6.978;2023-12-04T07:06:59;-0.10;99.90
39525;DHT22;25203;50.754;6.978;2023-12-04T07:09:05;0.00;99.90
39525;DHT22;25203;50.754;6.978;2023-12-04T07:11:09;-0.10;99.90
39525;DHT22;25203;50.754;6.978;2023-12-04T07:13:09;0.00;99.90
39525;DHT22;25203;50.754;6.978;2023-12-04T07:15:10;0.00;99.90
39525;DHT22;25203;50.754;6.978;2023-12-04T07:17:11;0.00;99.90
39525;DHT22;25203;50.754;6.978;2023-12-04T07:19:12;0.00;99.90
39525;DHT22;25203;50.754;6.978;2023-12-04T07:21:15;0.00;99.90
39525;DHT22;25203;50.754;6.978;2023-12-04T07:23:15;0.00;99.90
39525;DHT22;25203;50.754;6.978;2023-12-04T07:25:16;0.00;99.90
39525;DHT22;25203;50.754;6.978;2023-12-04T07:27:17;0.10;99.90
39525;DHT22;25203;50.754;6.978;2023-12-04T07:29:17;0.10;99.90
39525;DHT22;25203;50.754;6.978;2023-12-04T07:31:18;0.20;99.90
39525;DHT22;25203;50.754;6.978;2023-12-04T07:33:18;0.10;99.90
39525;DHT22;25203;50.754;6.978;2023-12-04T07:35:19;0.20;99.90
39525;DHT22;25203;50.754;6.978;2023-12-04T07:37:19;0.20;99.90
39525;DHT22;25203;50.754;6.978;2023-12-04T07:39:20;0.20;99.90
39525;DHT22;25203;50.754;6.978;2023-12-04T07:41:21;0.30;99.90
39525;DHT22;25203;50.754;6.978;2023-12-04T07:43:22;0.30;99.90
39525;DHT22;25203;50.754;6.978;2023-12-04T07:45:22;0.30;99.90
39525;DHT22;25203;50.754;6.978;2023-12-04T07:47:24;0.30;99.90
39525;DHT22;25203;50.754;6.978;2023-12-04T07:49:24;0.30;99.90
39525;DHT22;25203;50.754;6.978;2023-12-04T07:51:25;0.30;99.90
39525;DHT22;25203;50.754;6.978;2023-12-04T07:53:26;0.40;99.90
39525;DHT22;25203;50.754;6.978;2023-12-04T07:55:26;0.40;99.90
39525;DHT22;25203;50.754;6.978;2023-12-04T07:57:27;0.40;99.90
39525;DHT22;25203;50.754;6.978;2023-12-04T07:59:27;0.40;99.90
39525;DHT22;25203;50.754;6.978;2023-12-04T08:01:28;0.40;99.90
39525;DHT22;25203;50.754;6.978;2023-12-04T08:03:29;0.40;99.90
39525;DHT22;25203;50.754;6.978;2023-12-04T08:05:29;0.40;99.90
39525;DHT22;25203;50.754;6.978;2023-12-04T08:07:32;0.40;99.90
39525;DHT22;25203;50.754;6.978;2023-12-04T08:09:32;0.40;99.90
39525;DHT22;25203;50.754;6.978;2023-12-04T08:11:33;0.40;99.90
39525;DHT22;25203;50.754;6.978;2023-12-04T08:13:34;0.40;99.90
39525;DHT22;25203;50.754;6.978;2023-12-04T08:15:35;0.40;99.90
39525;DHT22;25203;50.754;6.978;2023-12-04T08:17:36;0.50;99.90
39525;DHT22;25203;50.754;6.978;2023-12-04T08:19:36;0.50;99.90
39525;DHT22;25203;50.754;6.978;2023-12-04T08:21:38;0.50;99.90
39525;DHT22;25203;50.754;6.978;2023-12-04T08:23:38;0.50;99.90
39525;DHT22;25203;50.754;6.978;2023-12-04T08:25:39;0.50;99.90
39525;DHT22;25203;50.754;6.978;2023-12-04T08:27:40;0.50;99.90
39525;DHT22;25203;50.754;6.978;2023-12-04T08:29:40;0.50;99.90
39525;DHT22;25203;50.754;6.978;2023-12-04T08:31:41;0.50;99.90
39525;DHT22;25203;50.754;6.978;2023-12-04T08:33:42;0.50;99.90
39525;DHT22;25203;50.754;6.978;2023-12-04T08:35:42;0.50;99.90
39525;DHT22;25203;50.754;6.978;2023-12-04T08:37:43;0.50;99.90
39525;DHT22;25203;50.754;6.978;2023-12-04T08:39:43;0.40;99.90
39525;DHT22;25203;50.754;6.978;2023-12-04T08:41:45;0.50;99.90
39525;DHT22;25203;50.754;6.978;2023-12-04T08:43:47;0.50;99.90
39525;DHT22;25203;50.754;6.978;2023-12-04T08:45:48;0.50;99.90
39525;DHT22;25203;50.754;6.978;2023-12-04T08:47:48;0.50;99.90
39525;DHT22;25203;50.754;6.978;2023-12-04T08:49:49;0.50;99.90
39525;DHT22;25203;50.754;6.978;2023-12-04T08:51:51;0.50;99.90
39525;DHT22;25203;50.754;6.978;2023-12-04T08:53:53;0.50;99.90
39525;DHT22;25203;50.754;6.978;2023-12-04T08:55:53;0.50;99.90
39525;DHT22;25203;50.754;6.978;2023-12-04T08:57:54;0.50;99.90
39525;DHT22;25203;50.754;6.978;2023-12-04T08:59:54;0.60;99.90
39525;DHT22;25203;50.754;6.978;2023-12-04T09:01:55;0.60;99.90
39525;DHT22;25203;50.754;6.978;2023-12-04T09:03:55;0.60;99.90
39525;DHT22;25203;50.754;6.978;2023-12-04T09:05:56;0.60;99.90
39525;DHT22;25203;50.754;6.978;2023-12-04T09:07:57;0.60;99.90
39525;DHT22;25203;50.754;6.978;2023-12-04T09:09:59;0.60;99.90
39525;DHT22;25203;50.754;6.978;2023-12-04T09:11:59;0.60;99.90
39525;DHT22;25203;50.754;6.978;2023-12-04T09:14:00;0.70;99.90
39525;DHT22;25203;50.754;6.978;2023-12-04T09:16:01;0.60;99.90
39525;DHT22;25203;50.754;6.978;2023-12-04T09:18:01;0.70;99.90
39525;DHT22;25203;50.754;6.978;2023-12-04T09:20:02;0.70;99.90
39525;DHT22;25203;50.754;6.978;2023-12-04T09:22:03;0.70;99.90
39525;DHT22;25203;50.754;6.978;2023-12-04T09:24:03;0.70;99.90
39525;DHT22;25203;50.754;6.978;2023-12-04T09:26:04;0.70;99.90
39525;DHT22;25203;50.754;6.978;2023-12-04T09:28:05;0.70;99.90
39525;DHT22;25203;50.754;6.978;2023-12-04T09:30:06;0.70;99.90
39525;DHT22;25203;50.754;6.978;2023-12-04T09:32:07;0.70;99.90
39525;DHT22;25203;50.754;6.978;2023-12-04T09:34:07;0.80;99.90
39525;DHT22;25203;50.754;6.978;2023-12-04T09:36:08;0.80;99.90
39525;DHT22;25203;50.754;6.978;2023-12-04T09:38:10;0.80;99.90
39525;DHT22;25203;50.754;6.978;2023-12-04T09:40:10;0.80;99.90
39525;DHT22;25203;50.754;6.978;2023-12-04T09:42:14;0.90;99.90
39525;DHT22;25203;50.754;6.978;2023-12-04T09:44:15;0.90;99.90
39525;DHT22;25203;50.754;6.978;2023-12-04T09:46:17;0.90;99.90
39525;DHT22;25203;50.754;6.978;2023-12-04T09:48:17;1.00;99.90
39525;DHT22;25203;50.754;6.978;2023-12-04T09:50:18;1.00;99.90
39525;DHT22;25203;50.754;6.978;2023-12-04T09:52:22;1.00;99.90
39525;DHT22;25203;50.754;6.978;2023-12-04T09:54:24;1.00;99.90
39525;DHT22;25203;50.754;6.978;2023-12-04T09:56:25;1.00;99.90
39525;DHT22;25203;50.754;6.978;2023-12-04T09:58:28;1.10;99.90
39525;DHT22;25203;50.754;6.978;2023-12-04T10:00:32;1.10;99.90
39525;DHT22;25203;50.754;6.978;2023-12-04T10:02:33;1.10;99.90
39525;DHT22;25203;50.754;6.978;2023-12-04T10:04:34;1.10;99.90
39525;DHT22;25203;50.754;6.978;2023-12-04T10:06:37;1.10;99.90
39525;DHT22;25203;50.754;6.978;2023-12-04T10:08:38;1.10;99.90
39525;DHT22;25203;50.754;6.978;2023-12-04T10:10:39;1.10;99.90
39525;DHT22;25203;50.754;6.978;2023-12-04T10:12:40;1.20;99.90
39525;DHT22;25203;50.754;6.978;2023-12-04T10:14:40;1.20;99.90
39525;DHT22;25203;50.754;6.978;2023-12-04T10:16:41;1.20;99.90
39525;DHT22;25203;50.754;6.978;2023-12-04T10:18:42;1.20;99.90
39525;DHT22;25203;50.754;6.978;2023-12-04T10:20:53;1.30;99.90
39525;DHT22;25203;50.754;6.978;2023-12-04T10:23:01;1.30;99.90
39525;DHT22;25203;50.754;6.978;2023-12-04T10:25:16;1.40;99.90
39525;DHT22;25203;50.754;6.978;2023-12-04T10:27:18;1.40;99.90
39525;DHT22;25203;50.754;6.978;2023-12-04T10:29:20;1.40;99.90
39525;DHT22;25203;50.754;6.978;2023-12-04T10:31:23;1.40;99.90
39525;DHT22;25203;50.754;6.978;2023-12-04T10:33:25;1.50;99.90
39525;DHT22;25203;50.754;6.978;2023-12-04T10:35:29;1.40;99.90
39525;DHT22;25203;50.754;6.978;2023-12-04T10:37:31;1.50;99.90
39525;DHT22;25203;50.754;6.978;2023-12-04T10:39:46;1.50;99.90
39525;DHT22;25203;50.754;6.978;2023-12-04T10:41:59;1.50;99.90
39525;DHT22;25203;50.754;6.978;2023-12-04T10:44:00;1.50;99.90
39525;DHT22;25203;50.754;6.978;2023-12-04T10:46:01;1.50;99.90
39525;DHT22;25203;50.754;6.978;2023-12-04T10:48:03;1.50;99.90
39525;DHT22;25203;50.754;6.978;2023-12-04T10:50:05;1.50;99.90
39525;DHT22;25203;50.754;6.978;2023-12-04T10:52:07;1.50;99.90
39525;DHT22;25203;50.754;6.978;2023-12-04T10:54:09;1.50;99.90
39525;DHT22;25203;50.754;6.978;2023-12-04T10:56:25;1.50;99.90
39525;DHT22;25203;50.754;6.978;2023-12-04T10:58:26;1.40;99.90
39525;DHT22;25203;50.754;6.978;2023-12-04T11:00:28;1.40;99.90
39525;DHT22;25203;50.754;6.978;2023-12-04T11:02:34;1.40;99.90
39525;DHT22;25203;50.754;6.978;2023-12-04T11:04:35;1.30;99.90
39525;DHT22;25203;50.754;6.978;2023-12-04T11:06:39;1.30;99.90
39525;DHT22;25203;50.754;6.978;2023-12-04T11:08:42;1.20;99.90
39525;DHT22;25203;50.754;6.978;2023-12-04T11:11:03;1.20;99.90
39525;DHT22;25203;50.754;6.978;2023-12-04T11:13:40;1.20;99.90
39525;DHT22;25203;50.754;6.978;2023-12-04T11:15:48;1.10;99.90
39525;DHT22;25203;50.754;6.978;2023-12-04T11:17:54;1.10;99.90
39525;DHT22;25203;50.754;6.978;2023-12-04T11:20:04;1.10;99.90
39525;DHT22;25203;50.754;6.978;2023-12-04T11:22:09;1.00;99.90
39525;DHT22;25203;50.754;6.978;2023-12-04T11:24:10;1.00;99.90
39525;DHT22;25203;50.754;6.978;2023-12-04T11:26:12;0.90;99.90
39525;DHT22;25203;50.754;6.978;2023-12-04T11:28:12;0.90;99.90
39525;DHT22;25203;50.754;6.978;2023-12-04T11:30:13;0.90;99.90
39525;DHT22;25203;50.754;6.978;2023-12-04T11:32:15;1.00;99.90
39525;DHT22;25203;50.754;6.978;2023-12-04T11:34:17;1.00;99.90
39525;DHT22;25203;50.754;6.978;2023-12-04T11:36:17;1.00;99.90
39525;DHT22;25203;50.754;6.978;2023-12-04T11:38:18;1.00;99.90
39525;DHT22;25203;50.754;6.978;2023-12-04T11:40:19;1.00;99.90
39525;DHT22;25203;50.754;6.978;2023-12-04T11:42:23;1.00;99.90
39525;DHT22;25203;50.754;6.978;2023-12-04T11:44:26;1.00;99.90
39525;DHT22;25203;50.754;6.978;2023-12-04T11:46:28;1.00;99.90
39525;DHT22;25203;50.754;6.978;2023-12-04T11:48:29;1.00;99.90
39525;DHT22;25203;50.754;6.978;2023-12-04T11:50:29;0.90;99.90
39525;DHT22;25203;50.754;6.978;2023-12-04T11:52:34;1.00;99.90
39525;DHT22;25203;50.754;6.978;2023-12-04T11:55:00;1.00;99.90
39525;DHT22;25203;50.754;6.978;2023-12-04T11:59:10;1.00;99.90
39525;DHT22;25203;50.754;6.978;2023-12-04T12:01:12;1.00;99.90
39525;DHT22;25203;50.754;6.978;2023-12-04T12:03:14;1.00;99.90
39525;DHT22;25203;50.754;6.978;2023-12-04T12:05:15;1.00;99.90
39525;DHT22;25203;50.754;6.978;2023-12-04T12:07:16;1.00;99.90
39525;DHT22;25203;50.754;6.978;2023-12-04T12:09:18;0.90;99.90
39525;DHT22;25203;50.754;6.978;2023-12-04T12:11:19;0.90;99.90
39525;DHT22;25203;50.754;6.978;2023-12-04T12:13:20;0.90;99.90
39525;DHT22;25203;50.754;6.978;2023-12-04T12:15:21;0.90;99.90
39525;DHT22;25203;50.754;6.978;2023-12-04T12:17:21;0.90;99.90
39525;DHT22;25203;50.754;6.978;2023-12-04T12:19:22;0.90;99.90
39525;DHT22;25203;50.754;6.978;2023-12-04T12:21:22;0.90;99.90
39525;DHT22;25203;50.754;6.978;2023-12-04T12:23:23;0.90;99.90
39525;DHT22;25203;50.754;6.978;2023-12-04T12:25:24;0.90;99.90
39525;DHT22;25203;50.754;6.978;2023-12-04T12:27:26;1.00;99.90
39525;DHT22;25203;50.754;6.978;2023-12-04T12:29:27;1.00;99.90
39525;DHT22;25203;50.754;6.978;2023-12-04T12:31:28;1.00;99.90
39525;DHT22;25203;50.754;6.978;2023-12-04T12:33:29;1.00;99.90
39525;DHT22;25203;50.754;6.978;2023-12-04T12:35:30;1.00;99.90
39525;DHT22;25203;50.754;6.978;2023-12-04T12:37:31;0.90;99.90
39525;DHT22;25203;50.754;6.978;2023-12-04T12:39:32;0.90;99.90
39525;DHT22;25203;50.754;6.978;2023-12-04T12:41:33;1.00;99.90
39525;DHT22;25203;50.754;6.978;2023-12-04T12:43:34;1.00;99.90
39525;DHT22;25203;50.754;6.978;2023-12-04T12:45:42;1.00;99.90
39525;DHT22;25203;50.754;6.978;2023-12-04T12:47:43;1.00;99.90
39525;DHT22;25203;50.754;6.978;2023-12-04T12:49:44;1.00;99.90
39525;DHT22;25203;50.754;6.978;2023-12-04T12:51:45;1.00;99.90
39525;DHT22;25203;50.754;6.978;2023-12-04T12:53:47;1.00;99.90
39525;DHT22;25203;50.754;6.978;2023-12-04T12:55:48;1.00;99.90
39525;DHT22;25203;50.754;6.978;2023-12-04T12:57:49;1.00;99.90
39525;DHT22;25203;50.754;6.978;2023-12-04T12:59:50;1.00;99.90
39525;DHT22;25203;50.754;6.978;2023-12-04T13:01:52;1.00;99.90